Observation data for Friona on 07/13/2020      Previous  Date  Next       Current Mesonet Observations  Soil Data  Daily Summary Page  Observations in Plain Language
KFAS 130500Z 25004KT 29/08 A2999 RMK A01 T02900081  RH  028%=      5-min Rain = 0
KFAS 130505Z 27004KT 29/08 A30 RMK A01 T02880081  RH  028%=      5-min Rain = 0
KFAS 130510Z 16003G9KT 29/09 A30 RMK A01 T02860091  RH  031%=      5-min Rain = 0
KFAS 130515Z 19003KT 28/10 A3001 RMK A01 T02780101  RH  034%=      5-min Rain = 0
KFAS 130520Z 20004KT 29/09 A3001 RMK A01 T02850085  RH  029%=      5-min Rain = 0
KFAS 130525Z 19006KT 29/08 A3001 RMK A01 T02910080  RH  027%=      5-min Rain = 0
KFAS 130530Z 33009G15KT 29/09 A3004 RMK A01 T02860088  RH  030%=      5-min Rain = 0
KFAS 130535Z 34011G18KT 28/08 A3006 RMK A01 T02830081  RH  029%=      5-min Rain = 0
KFAS 130540Z 34012KT 29/09 A3006 RMK A01 T02920091  RH  029%=      5-min Rain = 0
KFAS 130545Z 00012KT 29/10 A3006 RMK A01 T02910101  RH  032%=      5-min Rain = 0
KFAS 130550Z 02008KT 29/10 A3006 RMK A01 T02890104  RH  033%=      5-min Rain = 0
KFAS 130555Z 00009KT 29/11 A3007 RMK A01 T02870109  RH  034%=      5-min Rain = 0
KFAS 130600Z 00010G17KT 29/11 A3007 RMK A01 T02860112  RH  035%=      5-min Rain = 0
KFAS 130605Z 35019G31KT 29/11 A3007 RMK A01 T02880111  RH  034%=      5-min Rain = 0
KFAS 130610Z 35025G31KT 29/11 A3006 RMK A01 T02930107  RH  033%=      5-min Rain = 0
KFAS 130615Z 32023G37KT 30/10 A3007 RMK A01 T02980103  RH  031%=      5-min Rain = 0
KFAS 130620Z 32013G20KT 30/10 A3009 RMK A01 T02990104  RH  031%=      5-min Rain = 0
KFAS 130625Z 32016G21KT 29/11 A3009 RMK A01 T02920107  RH  033%=      5-min Rain = 0
KFAS 130630Z 32017KT 29/11 A3009 RMK A01 T02870111  RH  035%=      5-min Rain = 0
KFAS 130635Z 33018G25KT 29/11 A3008 RMK A01 T02850112  RH  035%=      5-min Rain = 0
KFAS 130640Z 33018KT 28/11 A3008 RMK A01 T02840110  RH  035%=      5-min Rain = 0
KFAS 130645Z 33015KT 28/11 A3007 RMK A01 T02800112  RH  036%=      5-min Rain = 0
KFAS 130650Z 33015KT 28/11 A3007 RMK A01 T02800107  RH  035%=      5-min Rain = 0
KFAS 130655Z 34012KT 28/10 A3007 RMK A01 T02830104  RH  034%=      5-min Rain = 0
KFAS 130700Z 35011KT 28/10 A3006 RMK A01 T02830102  RH  033%=      5-min Rain = 0
KFAS 130705Z 36011KT 28/10 A3006 RMK A01 T02840099  RH  033%=      5-min Rain = 0
KFAS 130710Z 35011KT 29/10 A3005 RMK A01 T02850096  RH  032%=      5-min Rain = 0
KFAS 130715Z 00011KT 29/09 A3004 RMK A01 T02880092  RH  030%=      5-min Rain = 0
KFAS 130720Z 01011KT 29/09 A3004 RMK A01 T02860091  RH  030%=      5-min Rain = 0
KFAS 130725Z 01011KT 28/09 A3004 RMK A01 T02830093  RH  031%=      5-min Rain = 0
KFAS 130730Z 02011KT 28/09 A3004 RMK A01 T02810093  RH  032%=      5-min Rain = 0
KFAS 130735Z 02011KT 28/09 A3003 RMK A01 T02790094  RH  032%=      5-min Rain = 0
KFAS 130740Z 02011KT 28/09 A3003 RMK A01 T02790094  RH  032%=      5-min Rain = 0
KFAS 130745Z 02010KT 28/09 A3003 RMK A01 T02780092  RH  032%=      5-min Rain = 0
KFAS 130750Z 02009KT 28/09 A3003 RMK A01 T02770091  RH  032%=      5-min Rain = 0
KFAS 130755Z 03008KT 28/09 A3002 RMK A01 T02750090  RH  032%=      5-min Rain = 0
KFAS 130800Z 04008KT 27/09 A3002 RMK A01 T02720091  RH  033%=      5-min Rain = 0
KFAS 130805Z 05008KT 27/09 A3002 RMK A01 T02690093  RH  034%=      5-min Rain = 0
KFAS 130810Z 04008KT 27/10 A3002 RMK A01 T02660095  RH  035%=      5-min Rain = 0
KFAS 130815Z 04007KT 26/09 A3003 RMK A01 T02630094  RH  036%=      5-min Rain = 0
KFAS 130820Z 04006KT 26/09 A3003 RMK A01 T02590094  RH  036%=      5-min Rain = 0
KFAS 130825Z 08005KT 25/11 A3002 RMK A01 T02540109  RH  042%=      5-min Rain = 0
KFAS 130830Z 13006KT 24/12 A3002 RMK A01 T02380123  RH  051%=      5-min Rain = 0
KFAS 130835Z 13004KT 23/12 A3002 RMK A01 T02330118  RH  050%=      5-min Rain = 0
KFAS 130840Z 14002KT 23/11 A3002 RMK A01 T02330113  RH  048%=      5-min Rain = 0
KFAS 130845Z 14003KT 24/11 A3002 RMK A01 T02360109  RH  046%=      5-min Rain = 0
KFAS 130850Z 12003KT 23/11 A3002 RMK A01 T02340111  RH  047%=      5-min Rain = 0
KFAS 130855Z 13002KT 23/11 A3002 RMK A01 T02330111  RH  048%=      5-min Rain = 0
KFAS 130900Z 14002KT 23/11 A3002 RMK A01 T02340109  RH  047%=      5-min Rain = 0
KFAS 130905Z 15003KT 23/11 A3002 RMK A01 T02330109  RH  047%=      5-min Rain = 0
KFAS 130910Z 14004KT 23/12 A3001 RMK A01 T02300119  RH  051%=      5-min Rain = 0
KFAS 130915Z 15004KT 23/12 A3001 RMK A01 T02270124  RH  054%=      5-min Rain = 0
KFAS 130920Z 16003KT 22/12 A3002 RMK A01 T02220117  RH  053%=      5-min Rain = 0
KFAS 130925Z 17002KT 22/11 A3002 RMK A01 T02210112  RH  052%=      5-min Rain = 0
KFAS 130930Z 17001KT 22/11 A3002 RMK A01 T02240112  RH  051%=      5-min Rain = 0
KFAS 130935Z 00000KT 22/11 A3003 RMK A01 T02200114  RH  053%=      5-min Rain = 0
KFAS 130940Z 16003KT 22/11 A3002 RMK A01 T02170114  RH  054%=      5-min Rain = 0
KFAS 130945Z 15008KT 22/12 A3001 RMK A01 T02200118  RH  054%=      5-min Rain = 0
KFAS 130950Z 16010KT 23/12 A30 RMK A01 T02270115  RH  051%=      5-min Rain = 0
KFAS 130955Z 16010KT 23/12 A2999 RMK A01 T02340118  RH  050%=      5-min Rain = 0
KFAS 131000Z 17011KT 24/11 A2999 RMK A01 T02380114  RH  048%=      5-min Rain = 0
KFAS 131005Z 18013G18KT 25/11 A30 RMK A01 T02450105  RH  043%=      5-min Rain = 0
KFAS 131010Z 18013KT 25/11 A30 RMK A01 T02450106  RH  043%=      5-min Rain = 0
KFAS 131015Z 18012KT 24/11 A30 RMK A01 T02440105  RH  043%=      5-min Rain = 0
KFAS 131020Z 19011KT 25/11 A30 RMK A01 T02450105  RH  043%=      5-min Rain = 0
KFAS 131025Z 20010KT 25/11 A3001 RMK A01 T02450105  RH  043%=      5-min Rain = 0
KFAS 131030Z 19010KT 24/11 A3001 RMK A01 T02440106  RH  043%=      5-min Rain = 0
KFAS 131035Z 19010KT 24/11 A3001 RMK A01 T02440108  RH  044%=      5-min Rain = 0
KFAS 131040Z 19010KT 24/11 A3001 RMK A01 T02420108  RH  044%=      5-min Rain = 0
KFAS 131045Z 19011KT 24/11 A3001 RMK A01 T02420110  RH  045%=      5-min Rain = 0
KFAS 131050Z 20010KT 24/11 A3001 RMK A01 T02410110  RH  045%=      5-min Rain = 0
KFAS 131055Z 20010KT 24/11 A3001 RMK A01 T02400111  RH  046%=      5-min Rain = 0
KFAS 131100Z 20011KT 24/11 A3001 RMK A01 T02400111  RH  046%=      5-min Rain = 0
KFAS 131105Z 19016KT 24/11 A30 RMK A01 T02430111  RH  045%=      5-min Rain = 0
KFAS 131110Z 19010KT 25/11 A3001 RMK A01 T02450111  RH  044%=      5-min Rain = 0
KFAS 131115Z 19013KT 25/11 A3001 RMK A01 T02470110  RH  044%=      5-min Rain = 0
KFAS 131120Z 19015KT 25/11 A30 RMK A01 T02500108  RH  042%=      5-min Rain = 0
KFAS 131125Z 19017G22KT 25/11 A2999 RMK A01 T02530107  RH  041%=      5-min Rain = 0
KFAS 131130Z 19018KT 26/11 A2999 RMK A01 T02550105  RH  040%=      5-min Rain = 0
KFAS 131135Z 19017KT 26/11 A2999 RMK A01 T02560106  RH  040%=      5-min Rain = 0
KFAS 131140Z 19017KT 26/11 A2999 RMK A01 T02570105  RH  040%=      5-min Rain = 0
KFAS 131145Z 19017G22KT 26/10 A2999 RMK A01 T02590104  RH  039%=      5-min Rain = 0
KFAS 131150Z 19016G22KT 26/10 A30 RMK A01 T02610101  RH  038%=      5-min Rain = 0
KFAS 131155Z 19017KT 26/10 A30 RMK A01 T02620096  RH  036%=      5-min Rain = 0
KFAS 131200Z 19015KT 26/09 A30 RMK A01 T02630092  RH  035%=      5-min Rain = 0
KFAS 131205Z 20015KT 26/09 A30 RMK A01 T02630089  RH  035%=      5-min Rain = 0
KFAS 131210Z 20014G19KT 26/09 A30 RMK A01 T02610091  RH  035%=      5-min Rain = 0
KFAS 131215Z 20014KT 26/09 A3001 RMK A01 T02610092  RH  035%=      5-min Rain = 0
KFAS 131220Z 20014KT 26/09 A3001 RMK A01 T02620092  RH  035%=      5-min Rain = 0
KFAS 131225Z 20014KT 26/09 A30 RMK A01 T02610092  RH  036%=      5-min Rain = 0
KFAS 131230Z 20013G20KT 26/09 A30 RMK A01 T02590092  RH  036%=      5-min Rain = 0
KFAS 131235Z 20013KT 26/09 A30 RMK A01 T02590092  RH  036%=      5-min Rain = 0
KFAS 131240Z 20012KT 26/09 A30 RMK A01 T02600090  RH  035%=      5-min Rain = 0
KFAS 131245Z 20014G19KT 26/09 A30 RMK A01 T02620088  RH  034%=      5-min Rain = 0
KFAS 131250Z 20013G18KT 27/09 A30 RMK A01 T02660086  RH  033%=      5-min Rain = 0
KFAS 131255Z 20013KT 27/09 A30 RMK A01 T02710087  RH  032%=      5-min Rain = 0
KFAS 131300Z 20012KT 27/09 A30 RMK A01 T02740087  RH  032%=      5-min Rain = 0
KFAS 131305Z 19011KT 28/09 A30 RMK A01 T02760088  RH  031%=      5-min Rain = 0
KFAS 131310Z 19011KT 28/09 A30 RMK A01 T02780087  RH  031%=      5-min Rain = 0
KFAS 131315Z 19013KT 28/09 A30 RMK A01 T02820087  RH  030%=      5-min Rain = 0
KFAS 131320Z 18014G19KT 28/09 A30 RMK A01 T02830087  RH  030%=      5-min Rain = 0
KFAS 131325Z 19017KT 28/09 A30 RMK A01 T02820087  RH  030%=      5-min Rain = 0
KFAS 131330Z 19016KT 28/09 A3001 RMK A01 T02830087  RH  030%=      5-min Rain = 0
KFAS 131335Z 19016KT 29/09 A3001 RMK A01 T02880086  RH  029%=      5-min Rain = 0
KFAS 131340Z 19017G22KT 29/09 A3001 RMK A01 T02910085  RH  028%=      5-min Rain = 0
KFAS 131345Z 19018KT 29/08 A3001 RMK A01 T02890084  RH  028%=      5-min Rain = 0
KFAS 131350Z 19016G22KT 29/09 A3001 RMK A01 T02940086  RH  028%=      5-min Rain = 0
KFAS 131355Z 20017KT 30/09 A3001 RMK A01 T02960085  RH  027%=      5-min Rain = 0
KFAS 131400Z 20017KT 30/08 A3001 RMK A01 T02980084  RH  027%=      5-min Rain = 0
KFAS 131405Z 19016G21KT 30/08 A3001 RMK A01 T03020084  RH  026%=      5-min Rain = 0
KFAS 131410Z 20017G24KT 31/09 A3001 RMK A01 T03060085  RH  026%=      5-min Rain = 0
KFAS 131415Z 19016G21KT 30/08 A3001 RMK A01 T03000083  RH  027%=      5-min Rain = 0
KFAS 131420Z 20015G22KT 30/08 A3001 RMK A01 T02970084  RH  027%=      5-min Rain = 0
KFAS 131425Z 19017KT 31/09 A3001 RMK A01 T03090085  RH  025%=      5-min Rain = 0
KFAS 131430Z 19015G20KT 32/09 A3001 RMK A01 T03150086  RH  025%=      5-min Rain = 0
KFAS 131435Z 19016G21KT 32/09 A30 RMK A01 T03180087  RH  025%=      5-min Rain = 0
KFAS 131440Z 20016G21KT 32/09 A30 RMK A01 T03200087  RH  024%=      5-min Rain = 0
KFAS 131445Z 20018KT 32/08 A30 RMK A01 T03240083  RH  023%=      5-min Rain = 0
KFAS 131450Z 20019KT 32/08 A30 RMK A01 T03240082  RH  023%=      5-min Rain = 0
KFAS 131455Z 21018KT 33/08 A30 RMK A01 T03250082  RH  023%=      5-min Rain = 0
KFAS 131500Z 20018G23KT 33/08 A30 RMK A01 T03270083  RH  023%=      5-min Rain = 0
KFAS 131505Z 21018KT 33/08 A30 RMK A01 T03290081  RH  022%=      5-min Rain = 0
KFAS 131510Z 22019KT 33/08 A30 RMK A01 T03290079  RH  022%=      5-min Rain = 0
KFAS 131515Z 22016G21KT 33/08 A2999 RMK A01 T03280080  RH  022%=      5-min Rain = 0
KFAS 131520Z 21016KT 33/08 A2999 RMK A01 T03320080  RH  022%=      5-min Rain = 0
KFAS 131525Z 21015KT 33/08 A2999 RMK A01 T03330081  RH  022%=      5-min Rain = 0
KFAS 131530Z 21016KT 33/08 A2999 RMK A01 T03320081  RH  022%=      5-min Rain = 0
KFAS 131535Z 21015KT 33/08 A2999 RMK A01 T03340081  RH  022%=      5-min Rain = 0
KFAS 131540Z 21015G20KT 33/08 A2999 RMK A01 T03330082  RH  022%=      5-min Rain = 0
KFAS 131545Z 22014KT 34/08 A2999 RMK A01 T03350084  RH  022%=      5-min Rain = 0
KFAS 131550Z 21014G19KT 34/09 A2999 RMK A01 T03390085  RH  022%=      5-min Rain = 0
KFAS 131555Z 21014KT 34/08 A2999 RMK A01 T03420084  RH  021%=      5-min Rain = 0
KFAS 131600Z 21014KT 34/08 A2999 RMK A01 T03440082  RH  021%=      5-min Rain = 0
KFAS 131605Z 21013G19KT 35/08 A2999 RMK A01 T03470081  RH  020%=      5-min Rain = 0
KFAS 131610Z 20014G19KT 35/08 A2999 RMK A01 T03480080  RH  020%=      5-min Rain = 0
KFAS 131615Z 21013KT 35/08 A2999 RMK A01 T03500080  RH  020%=      5-min Rain = 0
KFAS 131620Z 21013G18KT 36/08 A2999 RMK A01 T03550080  RH  019%=      5-min Rain = 0
KFAS 131625Z 22013KT 36/08 A2999 RMK A01 T03570077  RH  018%=      5-min Rain = 0
KFAS 131630Z 21013KT 36/07 A2999 RMK A01 T03580074  RH  018%=      5-min Rain = 0
KFAS 131635Z 22013KT 36/07 A2999 RMK A01 T03590074  RH  018%=      5-min Rain = 0
KFAS 131640Z 22012KT 36/08 A2998 RMK A01 T03610075  RH  018%=      5-min Rain = 0
KFAS 131645Z 24010KT 37/08 A2998 RMK A01 T03680078  RH  017%=      5-min Rain = 0
KFAS 131650Z 23012KT 37/07 A2998 RMK A01 T03710073  RH  017%=      5-min Rain = 0
KFAS 131655Z 22012KT 37/07 A2998 RMK A01 T03740071  RH  016%=      5-min Rain = 0
KFAS 131700Z 23012KT 38/07 A2998 RMK A01 T03770068  RH  016%=      5-min Rain = 0
KFAS 131705Z 25012G18KT 37/06 A2998 RMK A01 T03740063  RH  015%=      5-min Rain = 0
KFAS 131710Z 25011G16KT 37/07 A2998 RMK A01 T03730067  RH  016%=      5-min Rain = 0
KFAS 131715Z 24012G17KT 38/07 A2997 RMK A01 T03760065  RH  015%=      5-min Rain = 0
KFAS 131720Z 24012G20KT 38/07 A2997 RMK A01 T03780067  RH  015%=      5-min Rain = 0
KFAS 131725Z 24013G18KT 38/07 A2997 RMK A01 T03800068  RH  015%=      5-min Rain = 0
KFAS 131730Z 24011G17KT 38/07 A2997 RMK A01 T03810071  RH  016%=      5-min Rain = 0
KFAS 131735Z 25011G16KT 38/07 A2997 RMK A01 T03770069  RH  016%=      5-min Rain = 0
KFAS 131740Z 25009KT 38/07 A2997 RMK A01 T03810066  RH  015%=      5-min Rain = 0
KFAS 131745Z 26013G20KT 38/06 A2997 RMK A01 T03830064  RH  015%=      5-min Rain = 0
KFAS 131750Z 27013G20KT 39/07 A2997 RMK A01 T03850067  RH  015%=      5-min Rain = 0
KFAS 131755Z 27013G19KT 38/07 A2996 RMK A01 T03830068  RH  015%=      5-min Rain = 0
KFAS 131800Z 26012G18KT 39/07 A2996 RMK A01 T03850068  RH  015%=      5-min Rain = 0
KFAS 131805Z 26011G16KT 39/07 A2996 RMK A01 T03870068  RH  015%=      5-min Rain = 0
KFAS 131810Z 25013G19KT 39/07 A2996 RMK A01 T03870066  RH  014%=      5-min Rain = 0
KFAS 131815Z 26011KT 39/06 A2996 RMK A01 T03880063  RH  014%=      5-min Rain = 0
KFAS 131820Z 24011G17KT 39/06 A2996 RMK A01 T03900064  RH  014%=      5-min Rain = 0
KFAS 131825Z 25011KT 39/06 A2996 RMK A01 T03920061  RH  014%=      5-min Rain = 0
KFAS 131830Z 25011G16KT 39/06 A2996 RMK A01 T03910060  RH  014%=      5-min Rain = 0
KFAS 131835Z 26009KT 39/06 A2996 RMK A01 T03880061  RH  014%=      5-min Rain = 0
KFAS 131840Z 24010KT 39/07 A2995 RMK A01 T03900065  RH  014%=      5-min Rain = 0
KFAS 131845Z 26009G15KT 39/07 A2995 RMK A01 T03890068  RH  015%=      5-min Rain = 0
KFAS 131850Z 24008KT 39/06 A2995 RMK A01 T03930064  RH  014%=      5-min Rain = 0
KFAS 131855Z 24009G17KT 39/06 A2995 RMK A01 T03940058  RH  013%=      5-min Rain = 0
KFAS 131900Z 26007G15KT 39/06 A2994 RMK A01 T03920062  RH  014%=      5-min Rain = 0
KFAS 131905Z 26012G17KT 40/06 A2994 RMK A01 T04010056  RH  013%=      5-min Rain = 0
KFAS 131910Z 25010KT 40/06 A2994 RMK A01 T04020057  RH  013%=      5-min Rain = 0
KFAS 131915Z 26011G16KT 40/06 A2994 RMK A01 T04030057  RH  013%=      5-min Rain = 0
KFAS 131920Z 25007KT 40/06 A2994 RMK A01 T04020057  RH  013%=      5-min Rain = 0
KFAS 131925Z 26010G16KT 40/06 A2994 RMK A01 T04040059  RH  013%=      5-min Rain = 0
KFAS 131930Z 23009G14KT 40/06 A2993 RMK A01 T04000057  RH  013%=      5-min Rain = 0
KFAS 131935Z 27010G15KT 40/06 A2993 RMK A01 T04010057  RH  013%=      5-min Rain = 0
KFAS 131940Z 26007G14KT 40/06 A2993 RMK A01 T04010057  RH  013%=      5-min Rain = 0
KFAS 131945Z 28007G16KT 40/06 A2993 RMK A01 T04020056  RH  013%=      5-min Rain = 0
KFAS 131950Z 25012G17KT 40/06 A2993 RMK A01 T04040058  RH  013%=      5-min Rain = 0
KFAS 131955Z 26009G16KT 40/06 A2992 RMK A01 T04040055  RH  012%=      5-min Rain = 0
KFAS 132000Z 26011G17KT 41/06 A2992 RMK A01 T04060058  RH  012%=      5-min Rain = 0
KFAS 132005Z 26014KT 41/06 A2992 RMK A01 T04100058  RH  012%=      5-min Rain = 0
KFAS 132010Z 27011G18KT 41/06 A2992 RMK A01 T04060055  RH  012%=      5-min Rain = 0
KFAS 132015Z 24007G14KT 41/05 A2991 RMK A01 T04050053  RH  012%=      5-min Rain = 0
KFAS 132020Z 25010G15KT 41/05 A2991 RMK A01 T04070054  RH  012%=      5-min Rain = 0
KFAS 132025Z 28009KT 41/05 A2991 RMK A01 T04100051  RH  012%=      5-min Rain = 0
KFAS 132030Z 26013G18KT 41/06 A2991 RMK A01 T04080056  RH  012%=      5-min Rain = 0
KFAS 132035Z 27008G17KT 41/05 A2991 RMK A01 T04060051  RH  012%=      5-min Rain = 0
KFAS 132040Z 28010G16KT 41/05 A299 RMK A01 T04050051  RH  012%=      5-min Rain = 0
KFAS 132045Z 24009KT 41/05 A299 RMK A01 T04060053  RH  012%=      5-min Rain = 0
KFAS 132050Z 20007G14KT 40/05 A299 RMK A01 T04040053  RH  012%=      5-min Rain = 0
KFAS 132055Z 24014G20KT 41/05 A299 RMK A01 T04090053  RH  012%=      5-min Rain = 0
KFAS 132100Z 23011G17KT 41/05 A2989 RMK A01 T04090051  RH  012%=      5-min Rain = 0
KFAS 132105Z 20007G13KT 41/05 A2989 RMK A01 T04070051  RH  012%=      5-min Rain = 0
KFAS 132110Z 18005KT 41/05 A2989 RMK A01 T04090054  RH  012%=      5-min Rain = 0
KFAS 132115Z 26007KT 41/05 A2989 RMK A01 T04120053  RH  012%=      5-min Rain = 0
KFAS 132120Z 25006KT 41/05 A2988 RMK A01 T04130052  RH  011%=      5-min Rain = 0
KFAS 132125Z 24007G13KT 41/05 A2988 RMK A01 T04120052  RH  012%=      5-min Rain = 0
KFAS 132130Z 22011G16KT 42/05 A2988 RMK A01 T04170051  RH  011%=      5-min Rain = 0
KFAS 132135Z 24010G15KT 41/05 A2988 RMK A01 T04130049  RH  011%=      5-min Rain = 0
KFAS 132140Z 24005G10KT 42/05 A2988 RMK A01 T04150051  RH  011%=      5-min Rain = 0
KFAS 132145Z 18007G14KT 42/05 A2987 RMK A01 T04150049  RH  011%=      5-min Rain = 0
KFAS 132150Z 22009G16KT 41/05 A2987 RMK A01 T04110049  RH  011%=      5-min Rain = 0
KFAS 132155Z 25004G9KT 40/05 A2987 RMK A01 T03960048  RH  012%=      5-min Rain = 0
KFAS 132200Z 19008KT 39/05 A2987 RMK A01 T03900049  RH  013%=      5-min Rain = 0
KFAS 132205Z 17010KT 41/05 A2987 RMK A01 T04050053  RH  012%=      5-min Rain = 0
KFAS 132210Z 21007G12KT 42/05 A2986 RMK A01 T04160053  RH  011%=      5-min Rain = 0
KFAS 132215Z 20009G14KT 41/05 A2986 RMK A01 T04060051  RH  012%=      5-min Rain = 0
KFAS 132220Z 19011G16KT 40/05 A2986 RMK A01 T04020049  RH  012%=      5-min Rain = 0
KFAS 132225Z 22012G17KT 41/05 A2986 RMK A01 T04100051  RH  012%=      5-min Rain = 0
KFAS 132230Z 19010G17KT 41/05 A2986 RMK A01 T04120049  RH  011%=      5-min Rain = 0
KFAS 132235Z 19012G19KT 41/05 A2986 RMK A01 T04110050  RH  011%=      5-min Rain = 0
KFAS 132240Z 20014KT 40/05 A2986 RMK A01 T04030047  RH  012%=      5-min Rain = 0
KFAS 132245Z 19011KT 40/05 A2985 RMK A01 T03960046  RH  012%=      5-min Rain = 0
KFAS 132250Z 19010G19KT 41/05 A2985 RMK A01 T04070049  RH  012%=      5-min Rain = 0
KFAS 132255Z 19014KT 41/05 A2985 RMK A01 T04090048  RH  011%=      5-min Rain = 0
KFAS 132300Z 20011KT 41/05 A2985 RMK A01 T04070047  RH  011%=      5-min Rain = 0
KFAS 132305Z 20009G17KT 40/05 A2985 RMK A01 T04010045  RH  012%=      5-min Rain = 0
KFAS 132310Z 20014KT 40/05 A2984 RMK A01 T03990045  RH  012%=      5-min Rain = 0
KFAS 132315Z 20011G16KT 40/05 A2984 RMK A01 T04010045  RH  012%=      5-min Rain = 0
KFAS 132320Z 20008KT 40/05 A2984 RMK A01 T04030045  RH  011%=      5-min Rain = 0
KFAS 132325Z 22013KT 40/04 A2984 RMK A01 T04000041  RH  011%=      5-min Rain = 0
KFAS 132330Z 24011KT 40/04 A2984 RMK A01 T03950042  RH  012%=      5-min Rain = 0
KFAS 132335Z 24008KT 39/05 A2984 RMK A01 T03890050  RH  013%=      5-min Rain = 0
KFAS 132340Z 23008KT 39/04 A2984 RMK A01 T03880041  RH  012%=      5-min Rain = 0
KFAS 132345Z 23008KT 39/05 A2984 RMK A01 T03900045  RH  012%=      5-min Rain = 0
KFAS 132350Z 22012KT 39/04 A2984 RMK A01 T03890043  RH  012%=      5-min Rain = 0
KFAS 132355Z 23011G16KT 39/05 A2984 RMK A01 T03870046  RH  013%=      5-min Rain = 0
KFAS 140000Z 24011KT 38/05 A2984 RMK A01 T03840046  RH  013%=      5-min Rain = 0
KFAS 140005Z 24011KT 38/05 A2985 RMK A01 T03800049  RH  013%=      5-min Rain = 0
KFAS 140010Z 28013G20KT 38/05 A2985 RMK A01 T03760049  RH  014%=      5-min Rain = 0
KFAS 140015Z 29021G42KT 37/05 A2985 RMK A01 T03730046  RH  014%=      5-min Rain = 0
KFAS 140020Z 30027G49KT 37/06 A2986 RMK A01 T03650058  RH  016%=      5-min Rain = 0
KFAS 140025Z 29018G26KT 35/07 A2987 RMK A01 T03520065  RH  018%=      5-min Rain = 0
KFAS 140030Z 23021G47KT 34/08 A2991 RMK A01 T03400079  RH  021%=      5-min Rain = 0
KFAS 140035Z 08012G19KT 34/07 A299 RMK A01 T03410068  RH  019%=      5-min Rain = 0.01
KFAS 140040Z 09011G21KT 33/09 A2989 RMK A01 T03340087  RH  023%=      5-min Rain = 0.03
KFAS 140045Z 11012G22KT 32/09 A2987 RMK A01 T03190093  RH  026%=      5-min Rain = 0
KFAS 140050Z 10009KT 32/11 A2987 RMK A01 T03150105  RH  029%=      5-min Rain = 0
KFAS 140055Z 10010KT 30/13 A2987 RMK A01 T02950129  RH  037%=      5-min Rain = 0
KFAS 140100Z 08009G17KT 29/12 A2988 RMK A01 T02880124  RH  038%=      5-min Rain = 0
KFAS 140105Z 01016G21KT 29/13 A299 RMK A01 T02890131  RH  039%=      5-min Rain = 0
KFAS 140110Z 02011G16KT 29/14 A299 RMK A01 T02850136  RH  042%=      5-min Rain = 0
KFAS 140115Z 03013G18KT 28/14 A2989 RMK A01 T02810141  RH  044%=      5-min Rain = 0
KFAS 140120Z 01010KT 29/13 A2989 RMK A01 T02850129  RH  040%=      5-min Rain = 0
KFAS 140125Z 02013KT 28/14 A2989 RMK A01 T02800138  RH  043%=      5-min Rain = 0
KFAS 140130Z 03013KT 28/14 A2989 RMK A01 T02770143  RH  046%=      5-min Rain = 0
KFAS 140135Z 03014KT 27/15 A2989 RMK A01 T02720146  RH  048%=      5-min Rain = 0
KFAS 140140Z 04012KT 27/15 A2989 RMK A01 T02700146  RH  049%=      5-min Rain = 0
KFAS 140145Z 04012KT 27/14 A2989 RMK A01 T02700142  RH  047%=      5-min Rain = 0
KFAS 140150Z 03010KT 27/15 A2989 RMK A01 T02670149  RH  051%=      5-min Rain = 0
KFAS 140155Z 02008KT 26/15 A299 RMK A01 T02620153  RH  053%=      5-min Rain = 0
KFAS 140200Z 03007KT 26/15 A299 RMK A01 T02610154  RH  054%=      5-min Rain = 0
KFAS 140205Z 03007KT 26/16 A299 RMK A01 T02590158  RH  056%=      5-min Rain = 0
KFAS 140210Z 04009KT 26/15 A299 RMK A01 T02590152  RH  054%=      5-min Rain = 0
KFAS 140215Z 04010KT 26/15 A299 RMK A01 T02630147  RH  051%=      5-min Rain = 0
KFAS 140220Z 05013KT 27/14 A299 RMK A01 T02670141  RH  048%=      5-min Rain = 0
KFAS 140225Z 03012KT 27/14 A299 RMK A01 T02670141  RH  048%=      5-min Rain = 0
KFAS 140230Z 02009KT 26/15 A299 RMK A01 T02590153  RH  054%=      5-min Rain = 0
KFAS 140235Z 03008KT 26/15 A299 RMK A01 T02550151  RH  055%=      5-min Rain = 0
KFAS 140240Z 02007KT 26/15 A2991 RMK A01 T02550153  RH  056%=      5-min Rain = 0
KFAS 140245Z 00003KT 25/15 A2991 RMK A01 T02520154  RH  057%=      5-min Rain = 0
KFAS 140250Z 35004KT 25/15 A2992 RMK A01 T02520154  RH  057%=      5-min Rain = 0
KFAS 140255Z 02008KT 25/15 A2991 RMK A01 T02520154  RH  057%=      5-min Rain = 0
KFAS 140300Z 03007KT 26/15 A2992 RMK A01 T02550151  RH  055%=      5-min Rain = 0
KFAS 140305Z 16002KT 26/16 A2993 RMK A01 T02560156  RH  057%=      5-min Rain = 0
KFAS 140310Z 16003KT 26/15 A2993 RMK A01 T02570147  RH  053%=      5-min Rain = 0
KFAS 140315Z 19004KT 26/16 A2993 RMK A01 T02580155  RH  055%=      5-min Rain = 0
KFAS 140320Z 31002KT 26/15 A2994 RMK A01 T02580150  RH  054%=      5-min Rain = 0
KFAS 140325Z 33005KT 26/14 A2994 RMK A01 T02620143  RH  050%=      5-min Rain = 0
KFAS 140330Z 34004KT 26/15 A2995 RMK A01 T02620147  RH  051%=      5-min Rain = 0
KFAS 140335Z 31012G27KT 27/14 A2997 RMK A01 T02650137  RH  047%=      5-min Rain = 0
KFAS 140340Z 30020G27KT 29/11 A2998 RMK A01 T02890110  RH  034%=      5-min Rain = 0
KFAS 140345Z 28012G24KT 30/11 A2998 RMK A01 T02990107  RH  032%=      5-min Rain = 0
KFAS 140350Z 27009KT 30/11 A2998 RMK A01 T02990108  RH  032%=      5-min Rain = 0
KFAS 140355Z 26009G14KT 30/11 A2998 RMK A01 T02970108  RH  032%=      5-min Rain = 0
KFAS 140400Z 26009KT 30/11 A2999 RMK A01 T02970107  RH  032%=      5-min Rain = 0
KFAS 140405Z 27008KT 30/11 A2999 RMK A01 T02970108  RH  032%=      5-min Rain = 0
KFAS 140410Z 27007KT 30/11 A2999 RMK A01 T02960108  RH  032%=      5-min Rain = 0
KFAS 140415Z 32006KT 29/12 A2999 RMK A01 T02930116  RH  035%=      5-min Rain = 0
KFAS 140420Z 00004KT 28/12 A2999 RMK A01 T02810122  RH  039%=      5-min Rain = 0
KFAS 140425Z 36001KT 28/12 A2999 RMK A01 T02790119  RH  038%=      5-min Rain = 0
KFAS 140430Z 34003KT 28/11 A2999 RMK A01 T02840108  RH  035%=      5-min Rain = 0
KFAS 140435Z 28002KT 29/11 A2999 RMK A01 T02880108  RH  034%=      5-min Rain = 0
KFAS 140440Z 28003KT 29/11 A2999 RMK A01 T02910107  RH  033%=      5-min Rain = 0
KFAS 140445Z 25004KT 29/12 A2999 RMK A01 T02880115  RH  036%=      5-min Rain = 0
KFAS 140450Z 26004KT 28/12 A2999 RMK A01 T02830118  RH  037%=      5-min Rain = 0
KFAS 140455Z 26004KT 28/12 A2998 RMK A01 T02820115  RH  037%=      5-min Rain = 0

Page generated in 0.0103 seconds.